createdAt,value
2018-02-22T00:01:37.480Z,29.80
2018-02-22T00:04:04.644Z,31.67
2018-02-22T00:06:33.024Z,32.72
2018-02-22T00:09:01.280Z,31.23
2018-02-22T00:11:29.473Z,30.40
2018-02-22T00:14:00.476Z,35.15
2018-02-22T00:16:33.700Z,30.55
2018-02-22T00:19:01.928Z,31.02
2018-02-22T00:21:39.072Z,31.40
2018-02-22T00:24:06.887Z,34.20
2018-02-22T00:26:36.427Z,31.65
2018-02-22T00:29:06.795Z,29.67
2018-02-22T00:31:34.846Z,31.30
2018-02-22T00:34:03.629Z,32.33
2018-02-22T00:36:31.843Z,30.45
2018-02-22T00:39:01.172Z,31.52
2018-02-22T00:41:32.596Z,31.15
2018-02-22T00:44:03.246Z,31.25
2018-02-22T00:46:32.428Z,30.15
2018-02-22T00:49:01.236Z,31.60
2018-02-22T00:51:30.612Z,31.83
2018-02-22T00:56:44.975Z,30.25
2018-02-22T00:59:13.534Z,31.50
2018-02-22T01:01:41.001Z,32.38
2018-02-22T01:04:07.485Z,33.45
2018-02-22T01:06:35.952Z,31.40
2018-02-22T01:09:03.918Z,31.70
2018-02-22T01:11:36.372Z,31.42
2018-02-22T01:14:06.266Z,32.92
2018-02-22T01:16:37.037Z,30.88
2018-02-22T01:19:04.826Z,30.62
2018-02-22T01:21:32.549Z,29.95
2018-02-22T01:24:01.314Z,30.88
2018-02-22T01:26:31.746Z,30.30
2018-02-22T01:29:01.866Z,28.83
2018-02-22T01:31:30.851Z,29.87
2018-02-22T01:33:59.166Z,26.40
2018-02-22T01:36:32.147Z,30.48
2018-02-22T01:39:02.224Z,31.30
2018-02-22T01:41:32.310Z,30.65
2018-02-22T01:44:05.295Z,31.00
2018-02-22T01:46:36.285Z,27.83
2018-02-22T01:49:05.531Z,30.60
2018-02-22T01:51:35.384Z,27.73
2018-02-22T01:54:04.487Z,30.50
2018-02-22T01:56:34.306Z,31.25
2018-02-22T01:59:03.700Z,29.02
2018-02-22T02:01:33.701Z,33.70
2018-02-22T02:04:01.474Z,31.95
2018-02-22T02:06:29.245Z,30.15
2018-02-22T02:09:00.466Z,32.22
2018-02-22T02:11:30.312Z,33.72
2018-02-22T02:13:59.495Z,31.75
2018-02-22T02:16:27.946Z,30.45
2018-02-22T02:18:57.029Z,32.97
2018-02-22T02:21:24.206Z,31.15
2018-02-22T02:23:50.472Z,32.30
2018-02-22T02:26:17.393Z,35.72
2018-02-22T02:28:45.206Z,33.47
2018-02-22T02:31:12.697Z,31.77
2018-02-22T02:33:40.458Z,28.48
2018-02-22T02:36:09.214Z,28.05
2018-02-22T02:38:36.177Z,25.85
2018-02-22T02:41:03.442Z,28.45
2018-02-22T02:43:31.678Z,27.27
2018-02-22T02:45:58.898Z,25.60
2018-02-22T02:48:27.682Z,27.30
2018-02-22T02:50:55.094Z,28.33
2018-02-22T02:53:21.391Z,28.77
2018-02-22T02:55:48.052Z,29.63
2018-02-22T02:58:14.217Z,26.65
2018-02-22T03:00:40.382Z,28.62
2018-02-22T03:03:06.505Z,28.12
2018-02-22T03:05:32.622Z,26.58
2018-02-22T03:07:59.526Z,27.50
2018-02-22T03:10:25.676Z,26.50
2018-02-22T03:12:51.825Z,26.85
2018-02-22T03:15:17.995Z,26.85
2018-02-22T03:17:44.207Z,26.58
2018-02-22T03:20:10.331Z,25.67
2018-02-22T03:22:36.480Z,26.77
2018-02-22T03:25:02.661Z,26.30
2018-02-22T03:27:28.791Z,27.05
2018-02-22T03:29:55.652Z,26.60
2018-02-22T03:32:22.513Z,26.58
2018-02-22T03:34:49.379Z,27.67
2018-02-22T03:37:15.525Z,25.75
2018-02-22T03:39:41.647Z,24.75
2018-02-22T03:42:08.523Z,26.15
2018-02-22T03:44:34.658Z,23.35
2018-02-22T03:47:01.925Z,24.33
2018-02-22T03:49:30.718Z,23.55
2018-02-22T03:51:58.787Z,24.80
2018-02-22T03:54:26.427Z,25.50
2018-02-22T03:56:53.567Z,25.58
2018-02-22T03:59:19.843Z,25.42
2018-02-22T04:01:45.985Z,24.42
2018-02-22T04:04:12.155Z,25.10
2018-02-22T04:06:38.345Z,25.35
2018-02-22T04:09:04.508Z,24.17
2018-02-22T04:11:31.432Z,24.23
2018-02-22T04:13:57.610Z,25.30
2018-02-22T04:16:26.203Z,24.87
2018-02-22T04:18:55.827Z,23.40
2018-02-22T04:21:24.692Z,25.25
2018-02-22T04:23:51.080Z,25.95
2018-02-22T04:26:17.993Z,24.30
2018-02-22T04:28:44.965Z,25.73
2018-02-22T04:31:11.084Z,24.20
2018-02-22T04:33:38.580Z,25.02
2018-02-22T04:36:04.890Z,25.95
2018-02-22T04:38:31.023Z,27.30
2018-02-22T04:40:57.124Z,28.98
2018-02-22T04:43:24.007Z,28.50
2018-02-22T04:45:50.174Z,27.85
2018-02-22T04:48:16.303Z,28.27
2018-02-22T04:50:42.742Z,27.50
2018-02-22T04:53:08.884Z,28.25
2018-02-22T04:55:34.987Z,28.95
2018-02-22T04:58:01.895Z,24.67
2018-02-22T05:00:28.020Z,27.05
2018-02-22T05:02:54.237Z,24.75
2018-02-22T05:05:20.428Z,23.67
2018-02-22T05:07:46.564Z,22.70
2018-02-22T05:10:12.684Z,24.70
2018-02-22T05:12:38.842Z,21.12
2018-02-22T05:15:05.060Z,25.17
2018-02-22T05:17:31.159Z,25.33
2018-02-22T05:19:58.801Z,23.27
2018-02-22T05:22:25.888Z,22.70
2018-02-22T05:24:54.433Z,21.60
2018-02-22T05:27:21.575Z,22.37
2018-02-22T05:29:48.532Z,21.70
2018-02-22T05:32:14.679Z,22.33
2018-02-22T05:34:41.056Z,22.62
2018-02-22T05:37:07.211Z,23.65
2018-02-22T05:39:33.373Z,22.13
2018-02-22T05:42:00.306Z,23.58
2018-02-22T05:44:26.440Z,23.73
2018-02-22T05:46:52.593Z,24.12
2018-02-22T05:49:18.801Z,24.92
2018-02-22T05:51:45.470Z,24.42
2018-02-22T05:54:13.182Z,22.62
2018-02-22T05:56:42.021Z,24.73
2018-02-22T05:59:08.569Z,23.05
2018-02-22T06:01:35.078Z,22.00
2018-02-22T06:04:01.816Z,22.95
2018-02-22T06:06:30.000Z,22.92
2018-02-22T06:08:58.494Z,21.30
2018-02-22T06:11:26.516Z,21.60
2018-02-22T06:13:53.827Z,21.48
2018-02-22T06:16:20.165Z,21.12
2018-02-22T06:18:46.850Z,20.02
2018-02-22T06:21:13.760Z,20.65
2018-02-22T06:23:40.584Z,19.87
2018-02-22T06:26:07.072Z,19.33
2018-02-22T06:28:34.208Z,18.73
2018-02-22T06:31:00.871Z,17.70
2018-02-22T06:33:27.747Z,20.40
2018-02-22T06:35:54.441Z,20.92
2018-02-22T06:38:21.472Z,19.73
2018-02-22T06:40:47.600Z,18.87
2018-02-22T06:43:14.705Z,20.58
2018-02-22T06:45:41.585Z,20.60
2018-02-22T06:48:12.769Z,22.87
2018-02-22T06:50:39.373Z,22.60
2018-02-22T06:53:05.778Z,21.65
2018-02-22T06:55:32.310Z,18.23
2018-02-22T06:57:59.173Z,20.65
2018-02-22T07:00:25.523Z,18.83
2018-02-22T07:02:52.042Z,18.58
2018-02-22T07:05:18.196Z,18.67
2018-02-22T07:07:44.363Z,19.60
2018-02-22T07:10:12.525Z,18.58
2018-02-22T07:12:38.893Z,17.73
2018-02-22T07:15:05.402Z,18.60
2018-02-22T07:17:31.693Z,18.17
2018-02-22T07:19:58.570Z,17.10
2018-02-22T07:22:24.788Z,19.12
2018-02-22T07:24:51.935Z,18.05
2018-02-22T07:27:18.083Z,17.80
2018-02-22T07:29:44.462Z,19.60
2018-02-22T07:32:10.610Z,16.27
2018-02-22T07:34:36.719Z,17.75
2018-02-22T07:37:02.860Z,15.25
2018-02-22T07:39:29.726Z,17.12
2018-02-22T07:41:55.856Z,16.77
2018-02-22T07:44:23.712Z,16.60
2018-02-22T07:46:49.963Z,17.52
2018-02-22T07:49:16.888Z,16.98
2018-02-22T07:51:43.088Z,17.52
2018-02-22T07:54:09.336Z,16.25
2018-02-22T07:56:35.873Z,15.60
2018-02-22T07:59:02.020Z,15.45
2018-02-22T08:01:28.199Z,15.45
2018-02-22T08:03:54.456Z,16.85
2018-02-22T08:06:20.660Z,16.40
2018-02-22T08:11:50.791Z,15.15
2018-02-22T08:14:17.066Z,16.60
2018-02-22T08:16:48.698Z,15.52
2018-02-22T08:19:17.827Z,13.40
2018-02-22T08:21:45.985Z,14.60
2018-02-22T08:24:21.470Z,14.10
2018-02-22T08:26:47.729Z,15.45
2018-02-22T08:29:14.065Z,15.00
2018-02-22T08:31:40.284Z,14.73
2018-02-22T08:34:07.231Z,12.82
2018-02-22T08:36:33.575Z,14.27
2018-02-22T08:39:01.274Z,13.95
2018-02-22T08:41:27.968Z,14.15
2018-02-22T08:46:31.698Z,14.68
2018-02-22T08:48:58.400Z,15.07
2018-02-22T08:51:37.820Z,12.37
2018-02-22T08:54:05.112Z,12.07
2018-02-22T08:56:34.467Z,12.63
2018-02-22T08:59:04.245Z,12.60
2018-02-22T09:01:33.301Z,12.20
2018-02-22T09:04:02.565Z,12.35
2018-02-22T09:06:35.373Z,9.95
2018-02-22T09:09:04.492Z,12.48
2018-02-22T09:11:35.054Z,12.48
2018-02-22T09:14:05.420Z,11.10
2018-02-22T09:16:36.486Z,13.30
2018-02-22T09:19:05.915Z,12.32
2018-02-22T09:21:35.142Z,13.62
2018-02-22T09:24:04.429Z,14.50
2018-02-22T09:26:33.882Z,13.62
2018-02-22T09:29:01.266Z,11.40
2018-02-22T09:31:28.228Z,13.18
2018-02-22T09:36:30.695Z,11.55
2018-02-22T09:38:58.331Z,14.02
2018-02-22T09:44:05.512Z,12.07
2018-02-22T09:46:34.883Z,11.52
2018-02-22T09:49:02.399Z,13.35
2018-02-22T09:51:36.120Z,12.55
2018-02-22T09:54:04.413Z,14.00
2018-02-22T09:56:34.532Z,13.13
2018-02-22T09:59:04.333Z,14.57
2018-02-22T10:01:34.590Z,12.80
2018-02-22T10:04:02.679Z,16.97
2018-02-22T10:06:35.658Z,13.10
2018-02-22T10:09:05.488Z,13.35
2018-02-22T10:11:33.093Z,16.87
2018-02-22T10:16:35.404Z,12.83
2018-02-22T10:19:04.271Z,12.43
2018-02-22T10:21:31.446Z,12.23
2018-02-22T10:23:58.301Z,12.87
2018-02-22T10:26:26.607Z,11.37
2018-02-22T10:28:53.986Z,12.57
2018-02-22T10:31:20.298Z,10.73
2018-02-22T10:33:47.217Z,10.73
2018-02-22T10:36:13.736Z,12.33
2018-02-22T10:41:48.536Z,13.70
2018-02-22T10:44:18.396Z,11.90
2018-02-22T10:46:46.681Z,10.50
2018-02-22T10:49:16.272Z,11.97
2018-02-22T10:51:44.215Z,14.07
2018-02-22T10:54:12.121Z,12.33
2018-02-22T10:56:39.326Z,12.60
2018-02-22T10:59:05.640Z,11.37
2018-02-22T11:01:39.769Z,12.30
2018-02-22T11:04:06.050Z,10.13
2018-02-22T11:06:32.236Z,10.03
2018-02-22T11:08:59.240Z,12.63
2018-02-22T11:11:26.155Z,10.83
2018-02-22T11:13:52.332Z,9.77
2018-02-22T11:16:18.524Z,9.70
2018-02-22T11:18:44.704Z,10.97
2018-02-22T11:21:10.836Z,8.33
2018-02-22T11:23:38.412Z,9.57
2018-02-22T11:26:04.630Z,10.87
2018-02-22T11:28:31.553Z,9.83
2018-02-22T11:30:57.756Z,8.60
2018-02-22T11:33:23.989Z,9.57
2018-02-22T11:35:50.159Z,9.60
2018-02-22T11:38:16.334Z,10.13
2018-02-22T11:40:42.505Z,11.47
2018-02-22T11:43:08.839Z,10.30
2018-02-22T11:45:35.016Z,10.27
2018-02-22T11:48:01.122Z,10.67
2018-02-22T11:50:27.996Z,9.93
2018-02-22T11:52:54.139Z,10.80
2018-02-22T11:55:21.402Z,13.57
2018-02-22T11:57:47.587Z,10.73
2018-02-22T12:00:13.691Z,11.60
2018-02-22T12:02:39.859Z,10.67
2018-02-22T12:05:05.999Z,8.57
2018-02-22T12:07:32.292Z,8.57
2018-02-22T12:09:58.960Z,9.90
2018-02-22T12:12:26.033Z,8.13
2018-02-22T12:14:52.838Z,10.90
2018-02-22T12:17:18.993Z,8.00
2018-02-22T12:19:45.224Z,8.20
2018-02-22T12:22:11.340Z,8.20
2018-02-22T12:24:37.467Z,9.23
2018-02-22T12:27:04.920Z,9.13
2018-02-22T12:29:31.417Z,8.13
2018-02-22T12:31:59.289Z,10.43
2018-02-22T12:34:28.606Z,10.27
2018-02-22T12:36:55.358Z,9.93
2018-02-22T12:39:21.547Z,11.17
2018-02-22T12:41:47.711Z,9.53
2018-02-22T12:44:13.868Z,9.37
2018-02-22T12:46:40.314Z,9.73
2018-02-22T12:49:06.518Z,9.47
2018-02-22T12:51:32.648Z,9.03
2018-02-22T12:53:58.875Z,7.80
2018-02-22T12:56:25.050Z,9.50
2018-02-22T12:58:51.423Z,7.73
2018-02-22T13:01:17.787Z,9.03
2018-02-22T13:03:44.569Z,7.33
2018-02-22T13:06:18.412Z,9.37
2018-02-22T13:08:45.546Z,8.60
2018-02-22T13:11:14.033Z,7.60
2018-02-22T13:13:42.476Z,8.40
2018-02-22T13:16:09.980Z,8.57
2018-02-22T13:18:36.503Z,8.50
2018-02-22T13:21:07.503Z,7.90
2018-02-22T13:23:34.240Z,8.43
2018-02-22T13:26:00.716Z,8.33
2018-02-22T13:28:32.368Z,8.80
2018-02-22T13:30:58.767Z,9.30
2018-02-22T13:33:37.815Z,9.50
2018-02-22T13:36:04.593Z,9.37
2018-02-22T13:38:43.378Z,8.87
2018-02-22T13:41:10.083Z,8.60
2018-02-22T13:43:36.288Z,8.00
2018-02-22T13:46:03.315Z,8.17
2018-02-22T13:48:42.151Z,8.93
2018-02-22T13:51:10.734Z,8.27
2018-02-22T13:53:50.225Z,8.33
2018-02-22T20:08:32.831Z,28.67
2018-02-22T20:11:00.683Z,24.75
2018-02-22T23:44:57.397Z,27.67
2018-02-22T23:47:24.299Z,26.87
2018-02-22T23:49:51.263Z,27.50
2018-02-22T23:52:17.504Z,29.70
2018-02-22T23:54:43.755Z,34.35
2018-02-22T23:57:10.150Z,45.95
2018-02-22T23:59:36.501Z,47.93
